Time;durP1;ratioP1;P1;durP2;ratioP2;P2;SDS_P1;SDS_P2;PMS_P1;PMS_P2;Temp;Humidity;BMP_temperature;BMP_pressure;BME280_temperature;BME280_humidity;BME280_pressure;Samples;Min_cycle;Max_cycle;Signal;HPM_P1;HPM_P2
2021/07/14 00:01:42;;;;;;;9.43;3.15;;;28.00;55.80;;;;;;5031463;28;20025;-59
2021/07/14 00:04:08;;;;;;;9.23;3.97;;;28.00;55.20;;;;;;5045271;28;20557;-59
2021/07/14 00:06:35;;;;;;;14.48;4.85;;;28.10;55.10;;;;;;5034926;28;20087;-59
2021/07/14 00:09:02;;;;;;;13.45;4.55;;;28.10;55.20;;;;;;5050243;28;20059;-59
2021/07/14 00:11:30;;;;;;;13.25;3.50;;;28.10;55.30;;;;;;5052614;28;20029;-59
2021/07/14 00:22:36;;;;;;;9.17;3.53;;;28.00;55.90;;;;;;4990935;28;20034;-59
2021/07/14 00:25:05;;;;;;;13.82;3.90;;;28.10;55.30;;;;;;5021552;28;20048;-59
2021/07/14 00:27:31;;;;;;;8.05;3.33;;;28.10;55.50;;;;;;5050754;28;20037;-58
2021/07/14 00:29:59;;;;;;;6.53;2.75;;;28.00;55.40;;;;;;5051065;28;20052;-59
2021/07/14 00:32:27;;;;;;;16.42;4.50;;;28.00;55.20;;;;;;5034276;28;20130;-59
2021/07/14 00:34:54;;;;;;;9.85;3.40;;;28.00;55.50;;;;;;5017846;28;20032;-58
2021/07/14 00:37:20;;;;;;;9.93;3.00;;;28.00;55.30;;;;;;5051930;28;20461;-59
2021/07/14 00:39:55;;;;;;;9.13;4.00;;;28.10;55.20;;;;;;5034072;28;20451;-58
2021/07/14 00:42:21;;;;;;;13.15;3.85;;;28.10;55.30;;;;;;5052068;28;20037;-59
2021/07/14 00:44:47;;;;;;;15.68;4.22;;;28.10;55.20;;;;;;5034054;28;20091;-59
2021/07/14 00:47:13;;;;;;;15.52;4.60;;;28.10;55.10;;;;;;5033726;28;20025;-59
2021/07/14 00:49:40;;;;;;;10.55;3.38;;;28.00;55.20;;;;;;5051792;28;20025;-59
2021/07/14 00:52:06;;;;;;;9.88;4.03;;;28.00;55.30;;;;;;5051669;28;20087;-58
2021/07/14 00:54:32;;;;;;;11.13;3.90;;;28.00;55.50;;;;;;5020221;28;20032;-59
2021/07/14 00:56:59;;;;;;;12.43;4.10;;;28.00;55.30;;;;;;5031462;28;20108;-58
2021/07/14 00:59:24;;;;;;;15.35;3.75;;;28.00;55.30;;;;;;5032133;28;20017;-58
2021/07/14 01:01:50;;;;;;;10.65;3.53;;;28.00;55.40;;;;;;5032872;28;20128;-59
2021/07/14 01:04:30;;;;;;;10.35;4.10;;;27.90;55.50;;;;;;5051331;28;20484;-58
2021/07/14 01:07:02;;;;;;;9.40;4.03;;;27.90;55.70;;;;;;5033359;28;20052;-59
2021/07/14 01:09:37;;;;;;;14.57;4.60;;;27.80;55.70;;;;;;5032864;28;20040;-58
2021/07/14 01:12:11;;;;;;;14.07;4.07;;;27.80;56.10;;;;;;5033286;28;20035;-59
2021/07/14 01:14:49;;;;;;;12.27;4.22;;;27.60;56.40;;;;;;5051007;28;20056;-59
2021/07/14 01:17:19;;;;;;;12.60;4.45;;;27.60;56.70;;;;;;5051215;28;20064;-58
2021/07/14 01:20:09;;;;;;;11.95;4.00;;;27.50;56.80;;;;;;5049774;28;20025;-59
2021/07/14 01:23:07;;;;;;;14.32;3.92;;;27.40;56.80;;;;;;5033111;28;20035;-58
2021/07/14 01:25:40;;;;;;;13.73;4.40;;;27.40;56.80;;;;;;5033130;28;20048;-59
2021/07/14 01:28:08;;;;;;;25.02;5.85;;;27.40;56.90;;;;;;5032887;28;20031;-59
2021/07/14 01:30:34;;;;;;;15.35;4.35;;;27.30;56.80;;;;;;5039551;28;20054;-59
2021/07/14 01:33:03;;;;;;;6.78;3.45;;;27.40;56.80;;;;;;5050677;28;20032;-58
2021/07/14 01:35:36;;;;;;;14.57;4.28;;;27.40;56.70;;;;;;5049674;28;20040;-59
2021/07/14 01:38:04;;;;;;;14.75;4.28;;;27.40;56.70;;;;;;5033179;28;20040;-58
2021/07/14 01:40:32;;;;;;;6.82;3.30;;;27.40;56.60;;;;;;5032654;28;20043;-59
2021/07/14 01:43:01;;;;;;;9.18;2.78;;;27.40;56.50;;;;;;5049557;28;20029;-58
2021/07/14 01:45:31;;;;;;;8.90;3.33;;;27.50;56.40;;;;;;5031111;28;20041;-58
2021/07/14 01:48:02;;;;;;;12.50;3.85;;;27.60;56.30;;;;;;5049322;28;20106;-58
2021/07/14 01:50:30;;;;;;;11.23;3.50;;;27.60;56.20;;;;;;5050545;28;20033;-60
2021/07/14 01:52:58;;;;;;;7.93;3.75;;;27.70;56.00;;;;;;5049494;28;20032;-59
2021/07/14 01:55:25;;;;;;;8.57;2.95;;;27.70;55.90;;;;;;5049403;28;20387;-59
2021/07/14 01:57:56;;;;;;;9.30;3.40;;;27.70;55.90;;;;;;5050843;28;20025;-58
2021/07/14 02:00:23;;;;;;;7.40;3.22;;;27.70;55.80;;;;;;5049624;28;20376;-58
2021/07/14 02:02:54;;;;;;;8.25;3.10;;;27.70;55.60;;;;;;5049638;28;20371;-59
2021/07/14 02:05:21;;;;;;;9.52;2.88;;;27.80;55.60;;;;;;5039427;28;20126;-59
2021/07/14 02:07:47;;;;;;;7.38;3.28;;;27.90;55.50;;;;;;5050560;28;20029;-60
2021/07/14 02:10:14;;;;;;;9.05;3.58;;;27.90;55.40;;;;;;5032993;28;20028;-59
2021/07/14 02:12:45;;;;;;;15.93;3.90;;;28.00;55.30;;;;;;5049144;28;20387;-60
2021/07/14 02:15:12;;;;;;;10.13;4.25;;;28.00;55.20;;;;;;5050424;28;20053;-59
2021/07/14 02:17:59;;;;;;;13.35;3.45;;;28.00;55.10;;;;;;5050312;28;20025;-59
2021/07/14 02:20:25;;;;;;;12.55;3.70;;;27.90;55.20;;;;;;5051120;28;20025;-59
2021/07/14 02:22:52;;;;;;;7.40;2.50;;;27.90;55.00;;;;;;5051709;28;20052;-59
2021/07/14 02:25:19;;;;;;;7.03;2.70;;;28.00;55.10;;;;;;5033986;28;20041;-65
2021/07/14 02:27:45;;;;;;;10.30;3.38;;;28.00;55.00;;;;;;5034822;28;20036;-59
2021/07/14 02:30:21;;;;;;;8.35;3.03;;;28.00;55.00;;;;;;5032705;28;20477;-59
2021/07/14 02:33:05;;;;;;;9.20;3.00;;;28.10;55.00;;;;;;5016597;28;20492;-58
2021/07/14 02:35:35;;;;;;;10.00;3.45;;;28.10;54.90;;;;;;5033715;28;20030;-57
2021/07/14 02:38:14;;;;;;;8.32;3.67;;;28.20;54.90;;;;;;5034126;28;20397;-58
2021/07/14 02:41:02;;;;;;;6.93;2.80;;;28.20;54.80;;;;;;5032764;28;20026;-57
2021/07/14 02:43:29;;;;;;;12.93;4.15;;;28.20;54.70;;;;;;5015921;28;20029;-58
2021/07/14 02:45:59;;;;;;;10.98;3.58;;;28.20;54.70;;;;;;5032446;28;20045;-58
2021/07/14 02:48:27;;;;;;;9.88;3.20;;;28.30;54.60;;;;;;5033881;28;20553;-58
2021/07/14 02:50:56;;;;;;;9.45;3.83;;;28.30;54.70;;;;;;5033735;28;20492;-59
2021/07/14 02:53:30;;;;;;;20.65;3.80;;;28.30;54.60;;;;;;5033960;28;20071;-58
2021/07/14 02:56:00;;;;;;;11.20;4.22;;;28.40;54.80;;;;;;5016879;28;20025;-58
2021/07/14 02:58:32;;;;;;;15.80;3.90;;;28.30;54.70;;;;;;5034162;28;20076;-59
2021/07/14 03:01:00;;;;;;;12.05;4.43;;;28.40;55.00;;;;;;5052151;28;20187;-58
2021/07/14 03:03:27;;;;;;;10.35;3.58;;;28.40;55.20;;;;;;5034993;28;20037;-58
2021/07/14 03:05:59;;;;;;;11.15;3.50;;;28.30;54.80;;;;;;5049046;28;20186;-58
2021/07/14 03:08:30;;;;;;;9.50;3.40;;;28.30;54.70;;;;;;5051279;28;20143;-57
2021/07/14 03:10:58;;;;;;;10.77;3.63;;;28.30;54.70;;;;;;5050380;28;20025;-58
2021/07/14 03:13:26;;;;;;;12.98;4.65;;;28.40;54.70;;;;;;5034505;28;20024;-57
2021/07/14 03:15:53;;;;;;;14.70;4.63;;;28.30;54.50;;;;;;5033589;28;20029;-58
2021/07/14 03:18:22;;;;;;;14.05;4.90;;;28.30;54.40;;;;;;5032366;28;20103;-58
2021/07/14 03:20:52;;;;;;;11.85;4.95;;;28.30;54.30;;;;;;5032283;28;20048;-58
2021/07/14 03:23:19;;;;;;;12.65;4.80;;;28.30;54.40;;;;;;5033711;28;20032;-58
2021/07/14 03:25:49;;;;;;;14.07;5.22;;;28.20;54.40;;;;;;5042438;28;20128;-58
2021/07/14 03:28:16;;;;;;;12.23;4.32;;;28.30;54.50;;;;;;5051858;28;20032;-57
2021/07/14 03:30:42;;;;;;;10.93;4.53;;;28.30;54.50;;;;;;5052698;28;20049;-58
2021/07/14 03:33:08;;;;;;;11.93;4.40;;;28.30;54.50;;;;;;5052908;28;20106;-58
2021/07/14 03:35:36;;;;;;;14.38;4.03;;;28.30;54.40;;;;;;5052963;28;20137;-58
2021/07/14 03:38:05;;;;;;;13.40;4.60;;;28.30;54.40;;;;;;5052895;28;20025;-58
2021/07/14 03:40:32;;;;;;;10.30;4.45;;;28.30;54.30;;;;;;5051953;28;20017;-58
2021/07/14 03:43:00;;;;;;;9.25;3.60;;;28.40;54.40;;;;;;5052390;28;20024;-58
2021/07/14 03:45:27;;;;;;;13.38;4.53;;;28.40;54.30;;;;;;5052721;28;20523;-59
2021/07/14 03:47:54;;;;;;;14.30;4.45;;;28.40;54.20;;;;;;5034842;28;20121;-59
2021/07/14 03:50:22;;;;;;;8.05;4.45;;;28.50;54.20;;;;;;5031944;28;20025;-58
2021/07/14 03:52:48;;;;;;;13.50;4.40;;;28.40;54.10;;;;;;5033027;28;20048;-58
2021/07/14 03:55:15;;;;;;;11.25;3.65;;;28.50;54.00;;;;;;5032508;28;20052;-58
2021/07/14 03:57:42;;;;;;;12.90;5.90;;;28.40;54.00;;;;;;5032475;28;20424;-58
2021/07/14 04:00:10;;;;;;;17.60;5.40;;;28.40;53.70;;;;;;4998632;28;20033;-59
2021/07/14 04:02:37;;;;;;;10.35;3.67;;;28.40;53.80;;;;;;5031623;28;20033;-58
2021/07/14 04:05:07;;;;;;;12.32;4.80;;;28.40;53.80;;;;;;5032657;28;20038;-58
2021/07/14 04:07:36;;;;;;;7.20;3.78;;;28.40;53.70;;;;;;5032389;28;20095;-59
2021/07/14 04:10:03;;;;;;;10.88;3.85;;;28.30;53.70;;;;;;5014557;28;20026;-58
2021/07/14 04:12:29;;;;;;;12.40;4.32;;;28.40;53.70;;;;;;5032301;28;20117;-59
2021/07/14 04:14:55;;;;;;;14.15;3.80;;;28.40;53.60;;;;;;5032225;28;20021;-58
2021/07/14 04:17:21;;;;;;;9.85;3.55;;;28.40;53.60;;;;;;5047573;28;20452;-58
2021/07/14 04:19:47;;;;;;;8.48;3.88;;;28.40;53.50;;;;;;5052145;28;20036;-58
2021/07/14 04:22:13;;;;;;;15.73;5.97;;;28.40;53.50;;;;;;5034262;28;20029;-58
2021/07/14 04:24:41;;;;;;;10.15;4.45;;;28.40;53.20;;;;;;5052135;28;20033;-58
2021/07/14 04:27:08;;;;;;;11.98;4.07;;;28.40;53.10;;;;;;5034372;28;20040;-58
2021/07/14 04:29:34;;;;;;;10.32;3.72;;;28.40;53.20;;;;;;5033786;28;20376;-59
2021/07/14 04:32:01;;;;;;;12.20;3.95;;;28.50;53.10;;;;;;5052163;28;20045;-58
2021/07/14 04:34:27;;;;;;;8.57;3.50;;;28.50;53.10;;;;;;5033995;28;20033;-58
2021/07/14 04:36:53;;;;;;;10.35;4.20;;;28.50;53.10;;;;;;5051960;28;20036;-58
2021/07/14 04:39:19;;;;;;;10.45;4.65;;;28.50;53.00;;;;;;5051535;28;20111;-58
2021/07/14 04:41:46;;;;;;;6.65;3.75;;;28.50;52.90;;;;;;5049856;28;20052;-58
2021/07/14 04:44:17;;;;;;;9.32;3.92;;;28.50;52.70;;;;;;5046120;28;20120;-58
2021/07/14 04:46:44;;;;;;;8.88;4.15;;;28.60;52.70;;;;;;5051207;28;20037;-58
2021/07/14 04:49:11;;;;;;;13.25;4.13;;;28.60;52.60;;;;;;5051107;28;20017;-58
2021/07/14 04:51:37;;;;;;;11.45;3.92;;;28.60;52.60;;;;;;5051453;28;20021;-59
2021/07/14 04:54:03;;;;;;;7.30;3.58;;;28.70;52.50;;;;;;5051558;28;20494;-57
2021/07/14 04:56:29;;;;;;;10.00;3.50;;;28.70;52.50;;;;;;5032493;28;20021;-58
2021/07/14 04:58:55;;;;;;;12.90;4.35;;;28.70;52.50;;;;;;5051787;28;20032;-58
2021/07/14 05:01:21;;;;;;;7.93;4.03;;;28.70;52.40;;;;;;5051818;28;20037;-58
2021/07/14 05:03:48;;;;;;;8.50;4.28;;;28.70;52.40;;;;;;5050355;28;20458;-58
2021/07/14 05:06:17;;;;;;;8.30;4.30;;;28.70;52.40;;;;;;5045546;28;20037;-59
2021/07/14 05:08:44;;;;;;;10.95;4.45;;;28.70;52.30;;;;;;5050707;28;20096;-58
2021/07/14 05:11:12;;;;;;;14.13;3.72;;;28.80;52.40;;;;;;5032168;28;20376;-59
2021/07/14 05:13:38;;;;;;;7.80;3.40;;;28.80;52.30;;;;;;5046519;28;20120;-59
2021/07/14 05:16:04;;;;;;;9.25;3.60;;;28.80;52.30;;;;;;5049885;28;20488;-59
2021/07/14 05:18:33;;;;;;;8.88;3.92;;;28.80;52.30;;;;;;5050394;28;20056;-59
2021/07/14 05:20:59;;;;;;;12.95;5.47;;;28.80;52.30;;;;;;5051241;28;20032;-58
2021/07/14 05:23:25;;;;;;;7.93;4.25;;;28.90;52.30;;;;;;5050637;28;20031;-58
2021/07/14 05:25:51;;;;;;;9.95;3.78;;;28.90;52.30;;;;;;5033473;28;20049;-58
2021/07/14 05:28:17;;;;;;;10.48;4.32;;;28.90;52.20;;;;;;5050904;28;20506;-59
2021/07/14 05:30:43;;;;;;;10.93;3.78;;;28.90;52.20;;;;;;5038119;28;20530;-59
2021/07/14 05:33:10;;;;;;;10.63;3.95;;;28.90;52.10;;;;;;5047817;28;20504;-58
2021/07/14 05:35:36;;;;;;;9.27;3.65;;;29.00;52.10;;;;;;5048774;28;20120;-59
2021/07/14 05:38:02;;;;;;;8.02;3.95;;;29.00;52.10;;;;;;5050222;28;20032;-59
2021/07/14 05:40:28;;;;;;;7.25;3.80;;;29.00;52.10;;;;;;5049282;28;20131;-60
2021/07/14 05:42:54;;;;;;;10.82;4.88;;;29.00;52.00;;;;;;5050574;28;20103;-59
2021/07/14 05:45:20;;;;;;;8.02;4.25;;;29.00;52.00;;;;;;5048666;28;20136;-58
2021/07/14 05:47:49;;;;;;;9.52;3.97;;;29.00;52.00;;;;;;5050059;28;20033;-58
2021/07/14 05:50:15;;;;;;;10.88;4.60;;;29.00;51.90;;;;;;5049511;28;20074;-57
2021/07/14 05:52:41;;;;;;;8.77;4.07;;;29.00;51.90;;;;;;5032535;28;20025;-58
2021/07/14 05:55:10;;;;;;;15.05;4.95;;;29.10;52.00;;;;;;5050319;28;20025;-61
2021/07/14 05:57:37;;;;;;;13.38;4.68;;;29.10;51.90;;;;;;5051595;28;20025;-59
2021/07/14 06:00:06;;;;;;;16.92;4.65;;;29.10;51.90;;;;;;5036867;28;20021;-58
2021/07/14 06:02:32;;;;;;;8.80;4.45;;;29.10;51.90;;;;;;5033056;28;20121;-58
2021/07/14 06:04:58;;;;;;;8.82;5.00;;;29.10;51.90;;;;;;5033057;28;20051;-60
2021/07/14 06:07:23;;;;;;;14.40;4.68;;;29.10;51.90;;;;;;5048788;28;20440;-58
2021/07/14 06:09:49;;;;;;;12.57;4.80;;;29.20;51.90;;;;;;5052418;28;20025;-59
2021/07/14 06:12:15;;;;;;;12.93;4.65;;;29.20;51.90;;;;;;5050992;28;20020;-59
2021/07/14 06:14:43;;;;;;;8.95;3.80;;;29.20;51.90;;;;;;5054150;28;20029;-58
2021/07/14 06:17:09;;;;;;;11.60;4.65;;;29.20;51.90;;;;;;5053039;28;20013;-58
2021/07/14 06:19:35;;;;;;;11.27;5.05;;;29.20;51.90;;;;;;5051952;28;20439;-59
2021/07/14 06:22:02;;;;;;;14.13;4.20;;;29.20;51.90;;;;;;5051555;28;20075;-61
2021/07/14 06:24:28;;;;;;;9.50;4.63;;;29.30;51.80;;;;;;5054231;28;20037;-59
2021/07/14 06:26:55;;;;;;;9.77;4.50;;;29.30;51.90;;;;;;5053530;28;20503;-59
2021/07/14 06:29:24;;;;;;;13.75;4.47;;;29.30;51.90;;;;;;5052595;28;20771;-60
2021/07/14 06:31:50;;;;;;;15.27;5.18;;;29.30;51.70;;;;;;5052497;28;20056;-59
2021/07/14 06:34:17;;;;;;;16.20;5.72;;;29.30;52.20;;;;;;5053418;28;20035;-59
2021/07/14 06:36:43;;;;;;;10.10;4.68;;;29.30;52.00;;;;;;5052585;28;20024;-59
2021/07/14 06:39:10;;;;;;;13.70;4.85;;;29.30;52.00;;;;;;5053798;28;20388;-59
2021/07/14 06:41:36;;;;;;;11.98;5.35;;;29.40;52.30;;;;;;5052556;28;20033;-59
2021/07/14 06:44:03;;;;;;;11.88;4.93;;;29.40;52.50;;;;;;5053706;28;20029;-61
2021/07/14 06:46:30;;;;;;;10.85;4.85;;;29.40;52.50;;;;;;5019065;28;20433;-60
2021/07/14 06:48:56;;;;;;;11.98;3.90;;;29.50;52.50;;;;;;5048248;28;20084;-59
2021/07/14 06:51:22;;;;;;;24.02;5.85;;;29.40;53.50;;;;;;5053541;28;20124;-59
2021/07/14 06:53:48;;;;;;;15.75;4.82;;;29.40;53.70;;;;;;5027050;28;20029;-59
2021/07/14 06:56:14;;;;;;;14.63;4.60;;;29.30;53.80;;;;;;5044046;28;20079;-60
2021/07/14 06:58:40;;;;;;;10.10;3.88;;;29.30;54.20;;;;;;5026145;28;20059;-60
2021/07/14 07:01:08;;;;;;;7.65;3.30;;;29.10;54.20;;;;;;5048547;28;20021;-60
2021/07/14 07:03:34;;;;;;;12.35;4.45;;;29.10;54.60;;;;;;5053279;28;20029;-61
2021/07/14 07:06:01;;;;;;;8.85;3.72;;;29.00;54.70;;;;;;5052675;28;20036;-60
2021/07/14 07:08:27;;;;;;;19.13;4.88;;;29.00;55.00;;;;;;5051928;28;20499;-59
2021/07/14 07:10:53;;;;;;;16.05;4.60;;;28.90;55.10;;;;;;5051410;28;20095;-59
2021/07/14 07:13:19;;;;;;;16.75;4.78;;;28.80;55.10;;;;;;5045003;28;20508;-58
2021/07/14 07:15:46;;;;;;;18.33;4.97;;;28.80;55.30;;;;;;5052303;28;20092;-58
2021/07/14 07:18:12;;;;;;;12.13;3.72;;;28.70;55.40;;;;;;5052358;28;20491;-58
2021/07/14 07:20:39;;;;;;;17.45;4.88;;;28.70;55.10;;;;;;5052958;28;20028;-58
2021/07/14 07:23:05;;;;;;;14.63;4.55;;;28.70;55.50;;;;;;5034233;28;20029;-60
2021/07/14 07:25:33;;;;;;;13.02;3.90;;;28.70;55.60;;;;;;5033730;28;20428;-58
2021/07/14 07:28:01;;;;;;;17.55;4.43;;;28.70;55.70;;;;;;5036458;28;20078;-59
2021/07/14 07:30:27;;;;;;;16.95;4.35;;;28.70;55.80;;;;;;5038358;28;20475;-58
2021/07/14 07:32:53;;;;;;;11.93;4.07;;;28.70;56.10;;;;;;5033764;28;20032;-59
2021/07/14 07:35:19;;;;;;;17.45;4.45;;;28.60;55.90;;;;;;5052411;28;20029;-59
2021/07/14 07:37:45;;;;;;;11.52;3.42;;;28.60;56.10;;;;;;5047623;28;20033;-59
2021/07/14 07:40:12;;;;;;;13.35;4.20;;;28.60;56.10;;;;;;5041383;28;20103;-59
2021/07/14 07:42:39;;;;;;;13.20;4.65;;;28.70;56.30;;;;;;5051310;28;20052;-60
2021/07/14 07:45:07;;;;;;;13.18;4.45;;;28.70;56.30;;;;;;5048713;28;20052;-61
2021/07/14 07:47:33;;;;;;;10.23;4.20;;;28.70;56.10;;;;;;5046996;28;20031;-59
2021/07/14 07:49:59;;;;;;;14.48;4.50;;;28.70;55.90;;;;;;5051984;28;20029;-60
2021/07/14 07:52:26;;;;;;;16.17;4.60;;;28.80;56.00;;;;;;5052610;28;20036;-59
2021/07/14 07:54:53;;;;;;;18.90;4.80;;;28.80;56.10;;;;;;5050286;28;20017;-59
2021/07/14 07:57:18;;;;;;;13.60;4.32;;;28.80;56.10;;;;;;5052434;28;20522;-59
2021/07/14 07:59:44;;;;;;;14.02;4.20;;;28.80;56.00;;;;;;5051271;28;20024;-59
2021/07/14 08:02:10;;;;;;;15.50;4.72;;;28.90;55.90;;;;;;5052148;28;20033;-59
2021/07/14 08:04:36;;;;;;;11.75;5.03;;;28.90;55.80;;;;;;5051404;28;20484;-60
2021/07/14 08:07:02;;;;;;;11.15;4.85;;;28.90;55.80;;;;;;5052431;28;20033;-59
2021/07/14 08:09:28;;;;;;;15.43;4.82;;;28.90;55.60;;;;;;5050759;28;20544;-59
2021/07/14 08:11:54;;;;;;;18.75;5.10;;;28.90;55.60;;;;;;5050060;28;20120;-59
2021/07/14 08:14:20;;;;;;;16.17;5.18;;;29.00;55.60;;;;;;5051032;28;20124;-59
2021/07/14 08:16:46;;;;;;;15.25;4.65;;;29.00;55.60;;;;;;5048936;28;20119;-60
2021/07/14 08:19:12;;;;;;;10.23;3.90;;;28.90;55.60;;;;;;5048486;28;20036;-60
2021/07/14 08:21:39;;;;;;;12.90;5.07;;;28.90;55.60;;;;;;5051345;28;20021;-60
2021/07/14 08:24:06;;;;;;;19.35;5.32;;;28.90;55.60;;;;;;5052557;28;20029;-60
2021/07/14 08:26:32;;;;;;;10.77;4.57;;;28.90;55.50;;;;;;5050866;28;20378;-60
2021/07/14 08:28:59;;;;;;;9.18;4.15;;;28.90;55.40;;;;;;5047660;28;20416;-62
2021/07/14 08:31:25;;;;;;;15.00;6.03;;;28.90;55.20;;;;;;5051198;28;20049;-61
2021/07/14 08:33:51;;;;;;;10.18;5.30;;;29.00;55.40;;;;;;5033115;28;20028;-60
2021/07/14 08:36:17;;;;;;;8.93;3.85;;;28.90;55.30;;;;;;5049890;28;20041;-60
2021/07/14 08:38:43;;;;;;;15.02;4.85;;;28.90;55.30;;;;;;5033293;28;20029;-60
2021/07/14 08:41:10;;;;;;;12.52;4.25;;;28.90;55.40;;;;;;5051225;28;20032;-61
2021/07/14 08:43:41;;;;;;;10.18;4.22;;;29.00;55.50;;;;;;5051166;28;20029;-60
2021/07/14 08:46:07;;;;;;;11.25;3.97;;;29.00;55.70;;;;;;5045685;28;20129;-61
2021/07/14 08:48:34;;;;;;;13.95;5.65;;;29.00;55.70;;;;;;5014311;28;20029;-60
2021/07/14 08:51:00;;;;;;;14.25;4.97;;;29.00;55.80;;;;;;5032299;28;20116;-60
2021/07/14 08:53:28;;;;;;;16.83;4.60;;;29.10;55.70;;;;;;5015469;28;20047;-61
2021/07/14 08:55:56;;;;;;;11.40;3.70;;;29.00;56.00;;;;;;5047953;28;20177;-60
2021/07/14 08:58:24;;;;;;;15.43;4.53;;;29.00;56.20;;;;;;5049485;28;20031;-60
2021/07/14 09:00:52;;;;;;;15.70;4.43;;;28.90;56.30;;;;;;5030960;28;20032;-60
2021/07/14 09:03:19;;;;;;;17.77;5.10;;;28.90;56.70;;;;;;5041230;28;20159;-60
2021/07/14 09:05:46;;;;;;;13.77;4.95;;;28.90;56.70;;;;;;5049274;28;20135;-60
2021/07/14 09:08:14;;;;;;;11.57;5.18;;;28.90;56.80;;;;;;5032391;28;20044;-60
2021/07/14 09:10:47;;;;;;;14.68;4.75;;;28.90;57.00;;;;;;5044458;28;20448;-60
2021/07/14 09:13:14;;;;;;;12.98;4.75;;;28.80;56.90;;;;;;5049636;28;20091;-60
2021/07/14 09:15:48;;;;;;;15.27;4.47;;;28.90;57.30;;;;;;5050548;28;20029;-59
2021/07/14 09:18:20;;;;;;;12.13;3.80;;;28.80;57.30;;;;;;5048672;28;20021;-59
2021/07/14 09:20:46;;;;;;;15.98;3.95;;;28.90;57.30;;;;;;5044611;28;20036;-60
2021/07/14 09:23:19;;;;;;;14.00;4.68;;;28.80;57.50;;;;;;5030689;28;20097;-60
2021/07/14 09:25:55;;;;;;;12.68;4.15;;;28.80;57.40;;;;;;5029962;28;20041;-60
2021/07/14 09:28:26;;;;;;;13.85;3.83;;;28.70;57.70;;;;;;5050003;28;20087;-60
2021/07/14 09:31:02;;;;;;;15.93;4.97;;;28.70;58.10;;;;;;5046746;28;20506;-59
2021/07/14 09:33:28;;;;;;;15.13;4.40;;;28.60;58.10;;;;;;5048836;28;20949;-60
2021/07/14 09:35:57;;;;;;;12.43;4.28;;;28.60;58.40;;;;;;5032116;28;20036;-60
2021/07/14 09:38:32;;;;;;;21.80;4.32;;;28.50;58.40;;;;;;5050144;28;20025;-60
2021/07/14 09:41:04;;;;;;;14.35;4.22;;;28.50;58.60;;;;;;5032075;28;20032;-60
2021/07/14 09:43:33;;;;;;;16.30;4.22;;;28.50;58.50;;;;;;5050020;28;20031;-60
2021/07/14 09:46:01;;;;;;;13.93;4.70;;;28.30;58.80;;;;;;5047609;28;20079;-60
2021/07/14 09:48:31;;;;;;;17.17;4.38;;;28.30;58.90;;;;;;5030175;28;20484;-61
2021/07/14 09:51:03;;;;;;;16.02;4.20;;;28.20;59.10;;;;;;5043738;28;20032;-60
2021/07/14 09:53:33;;;;;;;18.95;4.10;;;28.10;59.20;;;;;;5046362;28;20040;-60
2021/07/14 09:56:09;;;;;;;13.57;4.68;;;28.10;59.30;;;;;;5048890;28;20048;-70
2021/07/14 09:58:36;;;;;;;17.30;5.38;;;28.20;59.40;;;;;;5016714;28;20017;-64
2021/07/14 10:01:04;;;;;;;14.75;3.50;;;28.20;59.10;;;;;;5047542;28;20582;-65
2021/07/14 10:03:36;;;;;;;11.50;4.45;;;28.30;59.00;;;;;;5048743;28;20033;-59
2021/07/14 10:06:05;;;;;;;17.38;4.38;;;28.40;58.50;;;;;;5032107;28;20395;-59
2021/07/14 10:08:40;;;;;;;14.27;4.22;;;28.50;58.10;;;;;;5047855;28;20360;-58
2021/07/14 10:11:13;;;;;;;13.80;4.80;;;28.60;58.10;;;;;;5044732;28;20040;-56
2021/07/14 10:14:02;;;;;;;21.88;5.32;;;28.60;58.10;;;;;;5050221;28;20033;-56
2021/07/14 10:16:33;;;;;;;9.88;3.97;;;28.60;57.90;;;;;;5040493;28;20112;-56
2021/07/14 10:19:16;;;;;;;15.63;4.63;;;28.80;57.80;;;;;;5049711;28;20037;-56
2021/07/14 10:21:45;;;;;;;10.68;4.90;;;28.80;57.70;;;;;;5049574;28;20083;-56
2021/07/14 10:24:13;;;;;;;12.07;4.20;;;28.90;57.70;;;;;;5050135;28;20131;-58
2021/07/14 10:26:42;;;;;;;15.10;4.50;;;28.90;57.30;;;;;;5050122;28;20057;-57
2021/07/14 10:29:09;;;;;;;6.65;4.13;;;29.00;56.80;;;;;;5050300;28;20031;-57
2021/07/14 10:31:36;;;;;;;8.77;4.88;;;29.10;56.70;;;;;;5066169;28;20113;-57
2021/07/14 10:34:04;;;;;;;8.55;4.00;;;29.20;56.70;;;;;;5069710;28;20044;-56
2021/07/14 10:36:41;;;;;;;11.18;5.28;;;29.40;56.20;;;;;;5049241;28;20484;-56
2021/07/14 10:39:13;;;;;;;9.05;4.70;;;29.50;55.30;;;;;;5049803;28;20036;-57
2021/07/14 10:41:39;;;;;;;18.08;5.47;;;29.50;55.10;;;;;;5048787;28;20143;-57
2021/07/14 10:44:07;;;;;;;10.68;4.53;;;29.70;55.10;;;;;;5053107;28;20021;-58
2021/07/14 10:46:35;;;;;;;20.25;4.82;;;29.70;55.00;;;;;;5053757;28;20132;-58
2021/07/14 10:49:05;;;;;;;13.52;4.57;;;29.80;54.90;;;;;;5053311;28;20098;-57
2021/07/14 10:51:32;;;;;;;9.05;4.60;;;29.90;54.80;;;;;;5053167;28;20039;-57
2021/07/14 10:54:02;;;;;;;12.57;4.40;;;29.90;54.80;;;;;;5034963;28;20029;-57
2021/07/14 10:56:35;;;;;;;13.80;4.90;;;30.00;54.70;;;;;;5053053;28;20032;-57
2021/07/14 10:59:02;;;;;;;9.80;4.28;;;30.10;54.90;;;;;;5052929;28;20052;-57
2021/07/14 11:01:57;;;;;;;12.48;4.72;;;30.20;54.80;;;;;;5052314;28;20357;-58
2021/07/14 11:04:26;;;;;;;9.77;4.45;;;30.30;54.80;;;;;;5050845;28;20434;-57
2021/07/14 11:06:57;;;;;;;11.20;4.72;;;30.40;54.30;;;;;;5052656;28;20025;-58
2021/07/14 11:09:36;;;;;;;8.02;4.50;;;30.40;54.10;;;;;;5052821;28;20484;-58
2021/07/14 11:12:09;;;;;;;10.95;4.88;;;30.50;54.00;;;;;;5052886;28;20070;-58
2021/07/14 11:14:39;;;;;;;11.02;3.70;;;30.60;53.80;;;;;;5052993;28;20082;-58
2021/07/14 11:17:05;;;;;;;;;;;30.60;53.50;;;;;;5053251;28;20033;-58
2021/07/14 11:19:50;;;;;;;13.25;4.80;;;30.70;53.80;;;;;;5052443;28;19909;-57
2021/07/14 11:22:35;;;;;;;7.15;3.40;;;30.80;52.80;;;;;;5052873;28;20029;-58
2021/07/14 11:25:04;;;;;;;14.27;4.50;;;30.80;52.60;;;;;;5052737;28;20044;-57
2021/07/14 11:27:30;;;;;;;10.73;4.72;;;30.80;52.50;;;;;;5052669;28;20094;-57
2021/07/14 11:30:03;;;;;;;11.68;4.10;;;30.80;52.30;;;;;;5052261;28;20032;-57
2021/07/14 11:32:38;;;;;;;9.70;4.30;;;30.80;52.10;;;;;;5052445;28;20061;-56
2021/07/14 11:35:16;;;;;;;11.68;4.60;;;30.80;52.20;;;;;;5051686;28;20118;-58
2021/07/14 11:37:51;;;;;;;12.30;4.32;;;30.90;52.30;;;;;;5052777;28;20029;-57
2021/07/14 11:40:20;;;;;;;8.30;4.35;;;30.90;52.20;;;;;;5050566;28;20050;-57
2021/07/14 11:42:53;;;;;;;13.70;4.88;;;30.90;52.20;;;;;;5034291;28;20479;-59
2021/07/14 11:45:26;;;;;;;13.13;4.40;;;31.00;52.10;;;;;;5052450;28;20037;-57
2021/07/14 11:48:05;;;;;;;7.90;3.38;;;31.00;51.80;;;;;;5052372;28;20033;-57
2021/07/14 11:50:54;;;;;;;9.45;3.88;;;31.10;52.00;;;;;;5052256;28;20067;-57
2021/07/14 11:53:31;;;;;;;10.60;3.88;;;31.10;52.00;;;;;;5051275;28;20029;-57
2021/07/14 11:55:57;;;;;;;15.52;4.80;;;31.10;51.70;;;;;;5033618;28;20029;-57
2021/07/14 11:58:42;;;;;;;8.05;4.32;;;31.20;51.80;;;;;;5052597;28;20028;-57
2021/07/14 12:01:31;;;;;;;8.05;4.03;;;31.20;51.80;;;;;;5033957;28;20036;-58
2021/07/14 12:04:02;;;;;;;6.78;3.70;;;31.30;51.70;;;;;;5021815;28;20067;-57
2021/07/14 12:06:34;;;;;;;10.77;4.45;;;31.30;51.40;;;;;;5051776;28;20033;-56
2021/07/14 12:09:12;;;;;;;12.07;5.22;;;31.40;51.20;;;;;;5051805;28;20029;-57
2021/07/14 12:12:01;;;;;;;7.20;3.85;;;31.40;51.30;;;;;;5052167;28;20029;-57
2021/07/14 12:14:41;;;;;;;18.30;4.75;;;31.40;51.10;;;;;;5032369;28;20033;-57
2021/07/14 12:17:09;;;;;;;13.90;4.20;;;31.50;51.00;;;;;;5044157;28;20898;-58
2021/07/14 12:19:43;;;;;;;21.42;6.15;;;31.50;51.00;;;;;;5046638;28;20032;-58
2021/07/14 12:22:11;;;;;;;15.88;6.30;;;31.50;50.90;;;;;;5047591;28;20055;-59
2021/07/14 12:24:42;;;;;;;20.92;5.10;;;31.50;50.80;;;;;;5050393;28;20069;-58
2021/07/14 12:27:27;;;;;;;10.07;4.53;;;31.60;51.00;;;;;;5051374;28;20233;-58
2021/07/14 12:29:59;;;;;;;12.55;5.45;;;31.60;50.70;;;;;;5050604;28;20027;-58
2021/07/14 12:32:36;;;;;;;20.33;5.13;;;31.70;50.80;;;;;;5050645;28;20029;-58
2021/07/14 12:35:31;;;;;;;14.65;5.32;;;31.60;50.70;;;;;;5049883;28;20025;-57
2021/07/14 12:38:06;;;;;;;13.32;6.03;;;31.70;50.70;;;;;;5020218;28;20056;-58
2021/07/14 12:40:51;;;;;;;11.80;6.10;;;31.70;50.70;;;;;;5051613;28;20021;-58
2021/07/14 12:43:19;;;;;;;13.05;5.22;;;31.60;50.80;;;;;;5045799;28;20036;-58
2021/07/14 12:45:50;;;;;;;16.60;5.93;;;31.70;50.80;;;;;;5042608;28;20033;-57
2021/07/14 12:48:21;;;;;;;14.77;5.85;;;31.60;50.70;;;;;;5041607;28;20037;-58
2021/07/14 12:50:49;;;;;;;14.25;5.82;;;31.60;50.80;;;;;;5041916;28;20371;-58
2021/07/14 12:53:16;;;;;;;14.75;6.13;;;31.60;50.80;;;;;;5039214;28;20040;-58
2021/07/14 12:55:43;;;;;;;11.32;5.35;;;31.70;51.50;;;;;;5041269;28;20025;-58
2021/07/14 12:58:16;;;;;;;15.57;5.63;;;31.70;51.00;;;;;;5023495;28;20111;-57
2021/07/14 13:00:45;;;;;;;9.68;5.35;;;31.70;50.90;;;;;;5041727;28;20060;-57